Time;durP1;ratioP1;P1;durP2;ratioP2;P2;SDS_P1;SDS_P2;PMS_P1;PMS_P2;Temp;Humidity;BMP_temperature;BMP_pressure;BME280_temperature;BME280_humidity;BME280_pressure;Samples;Min_cycle;Max_cycle;Signal;HPM_P1;HPM_P2
2022/06/21 00:02:16;;;;;;;21.47;8.53;;;;;;;-145.18;100.00;46648.69;4840426;29;20054;-80
2022/06/21 00:04:42;;;;;;;15.47;8.77;;;;;;;-145.18;100.00;46648.69;4840745;29;20050;-80
2022/06/21 00:07:13;;;;;;;15.80;8.23;;;;;;;-145.18;100.00;46648.69;4840194;29;20086;-81
2022/06/21 00:09:39;;;;;;;18.97;9.27;;;;;;;-145.18;100.00;46642.81;4840835;29;20034;-79
2022/06/21 00:12:05;;;;;;;18.77;8.53;;;;;;;-145.18;100.00;46646.72;4838210;29;20046;-80
2022/06/21 00:14:30;;;;;;;18.50;9.17;;;;;;;-145.18;100.00;46644.78;4840611;29;20062;-81
2022/06/21 00:16:56;;;;;;;17.97;8.40;;;;;;;-145.18;100.00;46648.69;4840075;29;20512;-82
2022/06/21 00:19:24;;;;;;;23.50;10.20;;;;;;;-145.18;100.00;46650.63;4840865;29;20403;-81
2022/06/21 00:21:50;;;;;;;17.30;8.03;;;;;;;-145.18;100.00;46648.69;4840175;29;20029;-82
2022/06/21 00:24:16;;;;;;;19.00;9.07;;;;;;;-145.18;100.00;46646.72;4840336;29;20124;-82
2022/06/21 00:26:44;;;;;;;16.87;9.17;;;;;;;-145.18;100.00;46646.72;4844597;29;20064;-83
2022/06/21 00:29:10;;;;;;;19.17;8.70;;;;;;;-145.18;100.00;46648.69;4858556;29;20026;-83
2022/06/21 00:31:40;;;;;;;23.20;9.80;;;;;;;-145.18;100.00;46646.72;4858723;29;20079;-83
2022/06/21 00:34:12;;;;;;;13.17;8.27;;;;;;;-145.18;100.00;46642.81;4841764;29;20083;-82
2022/06/21 00:36:38;;;;;;;14.97;9.30;;;;;;;-145.18;100.00;46642.81;4858738;29;20040;-81
2022/06/21 00:39:05;;;;;;;14.53;8.67;;;;;;;-145.18;100.00;46646.72;4858472;29;20057;-83
2022/06/21 00:41:44;;;;;;;17.17;9.17;;;;;;;-145.18;100.00;46648.69;4858797;29;20462;-83
2022/06/21 00:44:15;;;;;;;16.50;8.43;;;;;;;-145.18;100.00;46648.69;4858437;29;20068;-81
2022/06/21 00:46:47;;;;;;;15.47;8.70;;;;;;;-145.18;100.00;46646.72;4857648;29;20042;-82
2022/06/21 00:49:20;;;;;;;18.40;9.40;;;;;;;-145.18;100.00;46644.78;4839539;29;20085;-83
2022/06/21 00:51:48;;;;;;;13.10;8.47;;;;;;;-145.18;100.00;46644.78;4838831;29;20038;-82
2022/06/21 00:54:54;;;;;;;15.87;8.93;;;;;;;-145.18;100.00;46644.78;4839866;29;20063;-81
2022/06/21 00:57:24;;;;;;;18.67;9.23;;;;;;;-145.18;100.00;46648.69;4838242;29;20130;-81
2022/06/21 00:59:50;;;;;;;19.33;8.10;;;;;;;-145.18;100.00;46648.69;4840104;29;20022;-80
2022/06/21 01:02:24;;;;;;;14.37;7.57;;;;;;;-145.18;100.00;46654.53;4839644;29;20044;-81
2022/06/21 01:04:56;;;;;;;12.30;7.73;;;;;;;-145.18;100.00;46652.59;4839933;29;20037;-83
2022/06/21 01:07:22;;;;;;;11.10;7.30;;;;;;;-145.18;100.00;46648.69;4839815;29;20034;-80
2022/06/21 01:10:09;;;;;;;17.17;8.93;;;;;;;-145.18;100.00;46650.63;4839375;29;20441;-81
2022/06/21 01:12:46;;;;;;;26.70;9.30;;;;;;;-145.18;100.00;46648.69;4839525;29;20029;-82
2022/06/21 01:15:21;;;;;;;15.20;8.60;;;;;;;-145.18;100.00;46656.50;4839858;29;20034;-82
2022/06/21 01:17:48;;;;;;;22.40;8.60;;;;;;;-145.18;100.00;46648.69;4839554;29;20022;-83
2022/06/21 01:20:20;;;;;;;12.47;8.27;;;;;;;-145.18;100.00;46648.69;4839918;29;20098;-81
2022/06/21 01:23:17;;;;;;;13.90;8.50;;;;;;;-145.18;100.00;46648.69;4838408;29;20476;-81
2022/06/21 01:26:10;;;;;;;15.93;10.53;;;;;;;-145.18;100.00;46650.63;4839665;29;20042;-82
2022/06/21 01:28:35;;;;;;;18.53;9.70;;;;;;;-145.18;100.00;46654.53;4839533;29;20046;-82
2022/06/21 01:31:01;;;;;;;17.47;10.00;;;;;;;-145.18;100.00;46650.63;4839517;29;20090;-82
2022/06/21 01:33:30;;;;;;;16.73;9.53;;;;;;;-145.18;100.00;46652.59;4839467;29;20026;-82
2022/06/21 01:36:02;;;;;;;19.07;10.70;;;;;;;-145.18;100.00;46648.69;4839402;29;20082;-81
2022/06/21 01:38:34;;;;;;;19.17;10.23;;;;;;;-145.18;100.00;46648.69;4839312;29;20030;-82
2022/06/21 01:41:13;;;;;;;14.10;8.83;;;;;;;-145.18;100.00;46642.81;4839559;29;20070;-83
2022/06/21 01:43:41;;;;;;;15.77;9.10;;;;;;;-145.18;100.00;46652.59;4839307;29;20037;-82
2022/06/21 01:46:10;;;;;;;18.47;10.00;;;;;;;-145.18;100.00;46648.69;4839329;29;20091;-81
2022/06/21 01:48:45;;;;;;;20.40;8.70;;;;;;;-145.18;100.00;46648.69;4839300;29;20038;-82
2022/06/21 01:51:34;;;;;;;12.65;6.95;;;;;;;-145.18;100.00;46648.69;4839515;29;20074;-81
2022/06/21 01:54:02;;;;;;;14.60;8.30;;;;;;;-145.18;100.00;46648.69;4839004;29;20085;-82
2022/06/21 01:56:33;;;;;;;17.23;10.17;;;;;;;-145.18;100.00;46650.63;4839366;29;20026;-81
2022/06/21 01:59:08;;;;;;;22.40;10.17;;;;;;;-145.18;100.00;46650.63;4839080;29;20034;-80
2022/06/21 02:04:11;;;;;;;25.63;10.75;;;;;;;-145.18;100.00;46650.63;4869436;23;20544;-81
2022/06/21 02:06:42;;;;;;;19.00;11.03;;;;;;;-145.18;100.00;46646.72;4874957;29;20033;-81
2022/06/21 02:09:17;;;;;;;16.33;11.30;;;;;;;-145.18;100.00;46644.78;4874775;29;20045;-82
2022/06/21 02:11:47;;;;;;;23.17;11.15;;;;;;;-145.18;100.00;46646.72;4876419;29;20044;-81
2022/06/21 02:14:30;;;;;;;20.70;11.67;;;;;;;-145.18;100.00;46646.72;4876208;29;20123;-81
2022/06/21 02:17:10;;;;;;;20.07;11.90;;;;;;;-145.18;100.00;46648.69;4895219;29;20043;-82
2022/06/21 02:19:46;;;;;;;22.67;11.80;;;;;;;-145.18;100.00;46636.94;4894553;29;20032;-81
2022/06/21 02:22:21;;;;;;;20.52;12.43;;;;;;;-145.18;100.00;46642.81;4875172;29;20033;-81
2022/06/21 02:24:46;;;;;;;29.57;13.23;;;;;;;-145.18;100.00;46642.81;4872474;29;20068;-82
2022/06/21 02:27:16;;;;;;;17.17;11.10;;;;;;;-145.18;100.00;46638.91;4876371;29;20025;-82
2022/06/21 02:29:53;;;;;;;26.00;11.27;;;;;;;-145.18;100.00;46640.88;4876223;29;20076;-82
2022/06/21 02:32:24;;;;;;;13.73;10.47;;;;;;;-145.18;100.00;46640.88;4876195;29;20061;-81
2022/06/21 02:34:54;;;;;;;18.17;11.50;;;;;;;-145.18;100.00;46644.78;4877432;29;20124;-82
2022/06/21 02:37:20;;;;;;;15.60;10.47;;;;;;;-145.18;100.00;46642.81;4879571;29;20093;-83
2022/06/21 02:39:46;;;;;;;22.13;12.50;;;;;;;-145.18;100.00;46640.88;4879455;29;20040;-82
2022/06/21 02:42:22;;;;;;;23.90;12.93;;;;;;;-145.18;100.00;46640.88;4863074;29;20085;-82
2022/06/21 02:44:53;;;;;;;22.80;12.20;;;;;;;-145.18;100.00;46644.78;4879339;29;20068;-81
2022/06/21 02:47:26;;;;;;;24.10;12.67;;;;;;;-145.18;100.00;46638.91;4879634;29;20053;-81
2022/06/21 02:49:58;;;;;;;21.90;12.53;;;;;;;-145.18;100.00;46644.78;4879219;29;20409;-82
2022/06/21 02:52:37;;;;;;;26.80;12.77;;;;;;;-145.18;100.00;46646.72;4879164;29;20041;-81
2022/06/21 02:55:16;;;;;;;23.47;12.00;;;;;;;-145.18;100.00;46635.00;4879648;29;20040;-82
2022/06/21 02:57:47;;;;;;;18.70;11.13;;;;;;;-145.18;100.00;46640.88;4879097;29;20037;-82
2022/06/21 03:00:18;;;;;;;18.43;10.73;;;;;;;-145.18;100.00;46640.88;4879199;29;20036;-82
2022/06/21 03:02:44;;;;;;;18.27;10.40;;;;;;;-145.18;100.00;46642.81;4878516;29;20097;-82
2022/06/21 03:05:21;;;;;;;18.83;11.47;;;;;;;-145.18;100.00;46636.94;4879310;29;20061;-83
2022/06/21 03:07:54;;;;;;;21.77;11.93;;;;;;;-145.18;100.00;46638.91;4878678;29;20029;-82
2022/06/21 03:10:26;;;;;;;18.83;10.17;;;;;;;-145.18;100.00;46642.81;4879447;29;20695;-83
2022/06/21 03:13:03;;;;;;;20.90;11.17;;;;;;;-145.18;100.00;46636.94;4878183;29;20036;-82
2022/06/21 03:15:29;;;;;;;25.20;11.97;;;;;;;-145.18;100.00;46638.91;4879196;29;20124;-82
2022/06/21 03:18:00;;;;;;;17.07;11.77;;;;;;;-145.18;100.00;46660.41;4878803;29;20124;-80
2022/06/21 03:20:27;;;;;;;16.83;11.63;;;;;;;-145.18;100.00;46646.72;4878948;29;20021;-82
2022/06/21 03:22:54;;;;;;;17.57;10.43;;;;;;;-145.18;100.00;46640.88;4861629;29;20424;-83
2022/06/21 03:25:27;;;;;;;18.30;11.47;;;;;;;-145.18;100.00;46642.81;4878819;29;20112;-82
2022/06/21 03:27:56;;;;;;;16.63;10.80;;;;;;;-145.18;100.00;46644.78;4878061;29;20037;-82
2022/06/21 03:30:26;;;;;;;17.90;11.50;;;;;;;-145.18;100.00;46640.88;4878766;29;20549;-82
2022/06/21 03:32:54;;;;;;;18.40;11.10;;;;;;;-145.18;100.00;46640.88;4878352;29;20058;-82
2022/06/21 03:35:20;;;;;;;18.23;10.90;;;;;;;-145.18;100.00;46640.88;4878682;29;20036;-83
2022/06/21 03:37:46;;;;;;;23.90;12.40;;;;;;;-145.18;100.00;46642.81;4877870;29;20405;-82
2022/06/21 03:43:34;;;;;;;20.27;12.13;;;;;;;-145.18;100.00;46642.81;4878598;29;20434;-83
2022/06/21 03:46:05;;;;;;;19.97;11.87;;;;;;;-145.18;100.00;46642.81;4878010;29;20045;-81
2022/06/21 03:49:00;;;;;;;23.87;13.23;;;;;;;-145.18;100.00;46640.88;4877886;29;20033;-82
2022/06/21 03:51:32;;;;;;;22.40;12.20;;;;;;;-145.18;100.00;46636.94;4878427;29;20398;-82
2022/06/21 03:54:09;;;;;;;26.07;13.93;;;;;;;-145.18;100.00;46635.00;4878250;29;20037;-82
2022/06/21 03:56:52;;;;;;;22.77;13.10;;;;;;;-145.18;100.00;46635.00;4878002;29;20032;-81
2022/06/21 03:59:23;;;;;;;24.83;12.50;;;;;;;-145.18;100.00;46638.91;4877830;29;20299;-81
2022/06/21 04:02:08;;;;;;;24.03;12.90;;;;;;;-145.18;100.00;46635.00;4877761;29;20273;-81
2022/06/21 04:04:49;;;;;;;28.67;12.97;;;;;;;-145.18;100.00;46635.00;4877380;29;20318;-81
2022/06/21 04:07:29;;;;;;;26.87;11.73;;;;;;;-145.18;100.00;46640.88;4878116;29;20657;-80
2022/06/21 04:10:00;;;;;;;21.20;11.20;;;;;;;-145.18;100.00;46636.94;4872525;29;20032;-81
2022/06/21 04:12:32;;;;;;;23.77;12.00;;;;;;;-145.18;100.00;46633.06;4869199;29;20268;-81
2022/06/21 04:15:05;;;;;;;24.47;10.80;;;;;;;-145.18;100.00;46635.00;4868580;29;20324;-81
2022/06/21 04:17:56;;;;;;;19.70;10.83;;;;;;;-145.18;100.00;46633.06;4860922;29;20033;-81
2022/06/21 04:20:22;;;;;;;21.50;10.00;;;;;;;-145.18;100.00;46635.00;4867450;29;20284;-81
2022/06/21 04:22:50;;;;;;;18.37;10.07;;;;;;;-145.18;100.00;46633.06;4876689;29;20409;-81
2022/06/21 04:25:26;;;;;;;18.73;10.87;;;;;;;-145.18;100.00;46631.09;4877278;29;20175;-81
2022/06/21 04:28:24;;;;;;;19.37;10.20;;;;;;;-145.18;100.00;46633.06;4876542;29;20033;-80
2022/06/21 04:31:04;;;;;;;19.00;9.67;;;;;;;-145.18;100.00;46633.06;4870530;29;20049;-81
2022/06/21 04:33:47;;;;;;;22.50;9.87;;;;;;;-145.18;100.00;46636.94;4876015;29;20056;-81
2022/06/21 04:36:20;;;;;;;24.93;10.20;;;;;;;-145.18;100.00;46633.06;4859649;29;20029;-81
2022/06/21 04:38:51;;;;;;;19.43;11.00;;;;;;;-145.18;100.00;46635.00;4876112;29;20477;-81
2022/06/21 04:41:45;;;;;;;20.80;10.00;;;;;;;-145.18;100.00;46635.00;4876701;29;20414;-82
2022/06/21 04:44:40;;;;;;;19.10;10.60;;;;;;;-145.18;100.00;46633.06;4875332;29;20066;-80
2022/06/21 04:47:23;;;;;;;20.87;9.80;;;;;;;-145.18;100.00;46629.13;4876685;29;20115;-82
2022/06/21 04:50:29;;;;;;;17.30;9.37;;;;;;;-145.18;100.00;46633.06;4875103;29;20061;-81
2022/06/21 04:53:10;;;;;;;18.60;8.50;;;;;;;-145.18;100.00;46633.06;4873659;29;20072;-81
2022/06/21 04:55:47;;;;;;;18.67;8.70;;;;;;;-145.18;100.00;46635.00;4874198;29;20053;-81
2022/06/21 04:58:13;;;;;;;19.93;8.93;;;;;;;-145.18;100.00;46633.06;4875783;29;20686;-82
2022/06/21 05:00:38;;;;;;;13.57;8.90;;;;;;;-145.18;100.00;46629.13;4877095;29;20041;-82
2022/06/21 05:03:17;;;;;;;22.63;9.27;;;;;;;-145.18;100.00;46631.09;4876450;29;20044;-81
2022/06/21 05:05:43;;;;;;;17.87;9.97;;;;;;;-145.18;100.00;46631.09;4877064;29;20120;-80
2022/06/21 05:08:20;;;;;;;18.53;10.53;;;;;;;-145.18;100.00;46635.00;4876858;29;20124;-80
2022/06/21 05:10:48;;;;;;;19.57;10.20;;;;;;;-145.18;100.00;46635.00;4876607;29;20044;-80
2022/06/21 05:13:38;;;;;;;18.37;10.13;;;;;;;-145.18;100.00;46635.00;4877075;29;20033;-80
2022/06/21 05:16:33;;;;;;;17.80;10.57;;;;;;;-145.18;100.00;46629.13;4876924;29;20447;-82
2022/06/21 05:19:08;;;;;;;19.93;10.47;;;;;;;-145.18;100.00;46627.19;4876564;29;20044;-81
2022/06/21 05:21:50;;;;;;;22.33;10.90;;;;;;;-145.18;100.00;46631.09;4877174;29;20033;-81
2022/06/21 05:24:16;;;;;;;16.87;10.40;;;;;;;-145.18;100.00;46633.06;4876416;29;20040;-81
2022/06/21 05:26:58;;;;;;;19.10;9.60;;;;;;;-145.18;100.00;46633.06;4876521;29;20045;-81
2022/06/21 05:29:30;;;;;;;19.77;10.77;;;;;;;-145.18;100.00;46629.13;4876641;29;20044;-81
2022/06/21 05:32:00;;;;;;;22.00;11.43;;;;;;;-145.18;100.00;46633.06;4876682;29;20081;-81
2022/06/21 05:34:31;;;;;;;19.63;11.87;;;;;;;-145.18;100.00;46633.06;4876254;29;20168;-81
2022/06/21 05:37:07;;;;;;;17.90;10.00;;;;;;;-145.18;100.00;46629.13;4876547;29;20018;-80
2022/06/21 05:39:42;;;;;;;22.33;10.15;;;;;;;-145.18;100.00;46633.06;4876760;29;20068;-80
2022/06/21 05:42:12;;;;;;;13.45;9.57;;;;;;;-145.18;100.00;46636.94;4876583;29;20043;-80
2022/06/21 05:44:53;;;;;;;17.40;10.27;;;;;;;-145.18;100.00;46633.06;4875002;29;20029;-81
2022/06/21 05:47:26;;;;;;;18.77;8.77;;;;;;;-145.18;100.00;46631.09;4876144;29;20041;-82
2022/06/21 05:49:52;;;;;;;16.93;8.80;;;;;;;-145.18;100.00;46636.94;4875722;29;20478;-80
2022/06/21 05:52:28;;;;;;;17.70;8.90;;;;;;;-145.18;100.00;46636.94;4876703;29;20047;-81
2022/06/21 05:55:16;;;;;;;14.67;7.00;;;;;;;-145.18;100.00;46635.00;4876031;29;20040;-81
2022/06/21 05:57:48;;;;;;;13.93;7.70;;;;;;;-145.18;100.00;46640.88;4876449;29;20033;-81
2022/06/21 06:00:21;;;;;;;20.03;8.13;;;;;;;-145.18;100.00;46642.81;4876677;29;20383;-81
2022/06/21 06:02:51;;;;;;;20.07;7.13;;;;;;;-145.18;100.00;46640.88;4876250;29;20104;-81
2022/06/21 06:05:23;;;;;;;19.00;7.23;;;;;;;-145.18;100.00;46640.88;4876166;29;20029;-82
2022/06/21 06:07:54;;;;;;;11.87;6.70;;;;;;;-145.18;100.00;46640.88;4875981;29;20105;-82
2022/06/21 06:10:23;;;;;;;17.63;7.73;;;;;;;-145.18;100.00;46642.81;4878024;29;20032;-81
2022/06/21 06:12:54;;;;;;;11.90;6.20;;;;;;;-145.18;100.00;46646.72;4880135;29;20044;-81
2022/06/21 06:15:24;;;;;;;11.53;6.30;;;;;;;-145.18;100.00;46642.81;4879620;29;20029;-81
2022/06/21 06:18:06;;;;;;;13.10;6.53;;;;;;;-145.18;100.00;46650.63;4878596;29;20037;-81
2022/06/21 06:20:45;;;;;;;13.97;6.13;;;;;;;-145.18;100.00;46648.69;4879117;29;20077;-81
2022/06/21 06:23:40;;;;;;;18.17;6.30;;;;;;;-145.18;100.00;46648.69;4879869;29;20041;-82
2022/06/21 06:26:14;;;;;;;15.27;6.57;;;;;;;-145.18;100.00;46648.69;4879824;29;20060;-82
2022/06/21 06:29:14;;;;;;;14.87;6.53;;;;;;;-145.18;100.00;46652.59;4879414;29;20040;-82
2022/06/21 06:31:50;;;;;;;15.73;7.50;;;;;;;-145.18;100.00;46648.69;4879407;29;20033;-82
2022/06/21 06:34:22;;;;;;;13.33;7.50;;;;;;;-145.18;100.00;46648.69;4879295;29;20062;-83
2022/06/21 06:36:52;;;;;;;12.83;7.30;;;;;;;-145.18;100.00;46652.59;4879426;29;20037;-83
2022/06/21 06:39:23;;;;;;;13.27;6.87;;;;;;;-145.18;100.00;46650.63;4878916;29;20029;-82
2022/06/21 06:42:05;;;;;;;13.03;7.00;;;;;;;-145.18;100.00;46648.69;4862544;29;20056;-82
2022/06/21 06:44:37;;;;;;;13.23;6.23;;;;;;;-145.18;100.00;46652.59;4878931;29;20045;-83
2022/06/21 06:47:04;;;;;;;13.40;6.67;;;;;;;-145.18;100.00;46658.44;4879228;29;20040;-83
2022/06/21 06:49:37;;;;;;;12.90;6.13;;;;;;;-145.18;100.00;46658.44;4878786;29;20064;-82
2022/06/21 06:52:11;;;;;;;11.30;4.53;;;;;;;-145.18;100.00;46656.50;4879349;29;20112;-83
2022/06/21 06:54:58;;;;;;;11.33;4.90;;;;;;;-145.18;100.00;46658.44;4878947;29;20111;-82
2022/06/21 06:57:52;;;;;;;8.07;4.17;;;;;;;-145.18;100.00;46664.31;4879166;29;20043;-82
2022/06/21 07:00:21;;;;;;;10.70;4.13;;;;;;;-145.18;100.00;46662.34;4870224;29;20109;-82
2022/06/21 07:02:52;;;;;;;11.40;4.23;;;;;;;-145.18;100.00;46662.34;4878671;29;20076;-82
2022/06/21 07:05:25;;;;;;;11.53;4.23;;;;;;;-145.18;100.00;46646.72;4878866;29;20029;-82
2022/06/21 07:08:00;;;;;;;15.43;3.83;;;;;;;-145.18;100.00;46640.88;4878195;29;20049;-82
2022/06/21 07:10:26;;;;;;;;;;;;;;;-145.18;100.00;46636.94;4878206;29;20565;-81
2022/06/21 07:12:55;;;;;;;9.02;3.15;;;;;;;-145.18;100.00;46609.59;4878921;29;20019;-81
2022/06/21 07:15:35;;;;;;;8.70;3.40;;;;;;;-145.18;100.00;46562.72;4877597;29;20088;-82
2022/06/21 07:18:01;;;;;;;9.03;2.90;;;;;;;-145.18;100.00;46549.06;4878631;29;20061;-82
2022/06/21 07:20:38;;;;;;;6.93;2.50;;;;;;;-145.18;100.00;46537.34;4877280;29;20029;-82
2022/06/21 07:23:12;;;;;;;11.50;3.57;;;;;;;-145.18;100.00;46537.34;4878438;29;20463;-82
2022/06/21 07:25:46;;;;;;;4.60;3.15;;;;;;;-145.18;100.00;46535.38;4878093;29;20033;-82
2022/06/21 07:28:27;;;;;;;8.87;3.13;;;;;;;-145.18;100.00;46541.25;4878697;29;20067;-82
2022/06/21 07:30:56;;;;;;;13.00;3.57;;;;;;;-145.18;100.00;46533.44;4878204;29;20084;-83
2022/06/21 07:33:30;;;;;;;7.60;3.27;;;;;;;-145.18;100.00;46533.44;4877957;29;20044;-82
2022/06/21 07:36:09;;;;;;;9.40;3.73;;;;;;;-145.18;100.00;46537.34;4878157;29;20045;-82
2022/06/21 07:38:37;;;;;;;7.73;3.30;;;;;;;-145.18;100.00;46531.47;4877977;29;20151;-83
2022/06/21 07:41:07;;;;;;;10.77;3.43;;;;;;;-145.18;100.00;46537.34;4878006;29;20077;-81
2022/06/21 07:43:40;;;;;;;11.57;4.43;;;;;;;-145.18;100.00;46541.25;4877827;29;20041;-82
2022/06/21 07:46:08;;;;;;;9.97;3.07;;;;;;;-145.18;100.00;46545.16;4877986;29;20036;-83
2022/06/21 07:48:37;;;;;;;7.17;3.83;;;;;;;-145.18;100.00;46541.25;4877792;29;20108;-82
2022/06/21 07:51:09;;;;;;;9.30;3.37;;;;;;;-145.18;100.00;46547.09;4877664;29;20037;-82
2022/06/21 07:53:41;;;;;;;8.93;3.87;;;;;;;-145.18;100.00;46549.06;4877819;29;20025;-82
2022/06/21 07:56:22;;;;;;;7.20;3.47;;;;;;;-145.18;100.00;46547.09;4877941;29;20037;-82
2022/06/21 07:59:32;;;;;;;8.83;3.83;;;;;;;-145.18;100.00;46549.06;4877145;29;20052;-82
2022/06/21 08:08:03;;;;;;;14.07;3.80;;;;;;;-145.18;100.00;46558.81;4877493;29;20069;-83
2022/06/21 08:10:36;;;;;;;10.90;3.30;;;;;;;-145.18;100.00;46556.88;4877160;29;20036;-82
2022/06/21 08:13:02;;;;;;;13.30;3.47;;;;;;;-145.18;100.00;46560.78;4877288;29;20482;-81
2022/06/21 08:15:34;;;;;;;10.87;3.20;;;;;;;-145.18;100.00;46566.63;4877293;29;20037;-82
2022/06/21 08:18:10;;;;;;;7.70;3.40;;;;;;;-145.18;100.00;46564.69;4877362;29;20061;-83
2022/06/21 08:20:43;;;;;;;6.43;2.73;;;;;;;-145.18;100.00;46554.91;4876966;29;20047;-82
2022/06/21 08:23:21;;;;;;;9.80;3.50;;;;;;;-145.18;100.00;46566.63;4877426;29;20558;-82
2022/06/21 08:25:59;;;;;;;4.60;3.00;;;;;;;-145.18;100.00;46580.31;4876911;29;20740;-82
2022/06/21 08:28:34;;;;;;;9.47;3.27;;;;;;;-145.18;100.00;46593.97;4877212;29;20033;-83
2022/06/21 08:31:08;;;;;;;10.82;3.45;;;;;;;-145.18;100.00;46580.31;4876855;29;20068;-82
2022/06/21 08:33:44;;;;;;;13.83;3.53;;;;;;;-145.18;100.00;46572.50;4876347;29;20483;-82
2022/06/21 08:36:23;;;;;;;9.07;3.10;;;;;;;-145.18;100.00;46584.22;4877181;29;20056;-82
2022/06/21 08:39:08;;;;;;;8.20;3.30;;;;;;;-145.18;100.00;46597.88;4876366;29;20533;-82
2022/06/21 08:42:01;;;;;;;7.70;3.30;;;;;;;-145.18;100.00;46590.06;4877006;29;20056;-82
2022/06/21 08:44:46;;;;;;;11.20;3.53;;;;;;;-145.18;100.00;46607.66;4876943;29;20048;-84
2022/06/21 08:47:23;;;;;;;9.13;3.33;;;;;;;-145.18;100.00;46623.28;4876974;29;20041;-82
2022/06/21 08:50:04;;;;;;;8.73;3.10;;;;;;;-145.18;100.00;46683.84;4876151;29;20072;-82
2022/06/21 08:53:14;;;;;;;8.30;2.83;;;;;;;-145.18;100.00;46625.22;4877001;29;20108;-81
2022/06/21 08:56:02;;;;;;;6.70;3.00;;;;;;;-145.18;100.00;46658.44;4861035;29;20498;-82
2022/06/21 08:58:43;;;;;;;8.83;2.60;;;;;;;-145.18;100.00;46636.94;4877023;29;20025;-82
2022/06/21 09:01:17;;;;;;;5.50;2.60;;;;;;;-145.18;100.00;47140.94;4875365;29;20056;-82
2022/06/21 09:04:15;;;;;;;10.60;3.17;;;;;;;-145.18;100.00;47197.59;4876029;29;20081;-82
2022/06/21 09:07:12;;;;;;;7.70;3.33;;;;;;;-145.18;100.00;47203.47;4876314;29;20052;-82
2022/06/21 09:10:03;;;;;;;;;;;;;;;-145.18;100.00;47242.53;4869503;29;20037;-81
2022/06/21 09:12:37;;;;;;;5.57;2.40;;;;;;;-145.18;100.00;47219.09;4876424;29;19925;-82
2022/06/21 09:15:27;;;;;;;8.17;2.53;;;;;;;-145.18;100.00;47226.91;4875731;29;20033;-82
2022/06/21 09:18:17;;;;;;;8.00;2.67;;;;;;;-145.18;100.00;47221.03;4876557;29;20112;-82
2022/06/21 09:20:46;;;;;;;6.23;2.83;;;;;;;-145.18;100.00;47248.41;4876104;29;20076;-82
2022/06/21 09:23:37;;;;;;;5.07;3.00;;;;;;;-145.18;100.00;47201.50;4876414;29;20029;-82
2022/06/21 09:26:22;;;;;;;8.23;2.73;;;;;;;-145.18;100.00;47197.59;4875715;29;20645;-81
2022/06/21 09:29:02;;;;;;;5.93;3.47;;;;;;;-145.18;100.00;47267.94;4875912;29;20044;-82
2022/06/21 09:31:36;;;;;;;5.87;3.30;;;;;;;-145.18;100.00;47267.94;4876658;29;20112;-82
2022/06/21 09:34:05;;;;;;;6.17;3.70;;;;;;;-145.18;100.00;47242.53;4875496;29;20071;-82
2022/06/21 09:36:48;;;;;;;8.40;3.77;;;;;;;-145.18;100.00;47226.91;4876265;29;20052;-82
2022/06/21 09:39:26;;;;;;;9.43;3.67;;;;;;;-145.18;100.00;47256.22;4876367;29;20041;-83
2022/06/21 09:42:19;;;;;;;9.10;3.30;;;;;;;-145.18;100.00;47211.28;4876254;29;20030;-83
2022/06/21 09:45:21;;;;;;;10.97;3.03;;;;;;;-145.18;100.00;47205.41;4878750;29;20092;-83
2022/06/21 09:47:49;;;;;;;10.80;5.07;;;;;;;-145.18;100.00;47205.41;4879801;29;20040;-83
2022/06/21 09:50:38;;;;;;;8.83;3.47;;;;;;;-145.18;100.00;47176.09;4880189;29;20064;-82
2022/06/21 09:53:13;;;;;;;7.23;3.90;;;;;;;-145.18;100.00;47158.53;4879930;29;20037;-82
2022/06/21 09:55:51;;;;;;;9.47;3.57;;;;;;;-145.18;100.00;47125.31;4879662;29;20120;-82
2022/06/21 09:58:34;;;;;;;7.90;2.70;;;;;;;-145.18;100.00;47119.47;4879768;29;20033;-83
2022/06/21 10:01:29;;;;;;;7.63;2.57;;;;;;;-145.18;100.00;47072.56;4879583;29;20029;-81
2022/06/21 10:04:23;;;;;;;7.73;2.73;;;;;;;-145.18;100.00;47082.34;4870302;29;20136;-82
2022/06/21 10:07:07;;;;;;;5.57;2.83;;;;;;;-145.18;100.00;47099.91;4879454;29;20048;-82
2022/06/21 10:09:52;;;;;;;5.07;3.73;;;;;;;-145.18;100.00;47096.00;4879270;29;20494;-81
2022/06/21 10:12:29;;;;;;;7.13;3.63;;;;;;;-145.18;100.00;47113.59;4879874;29;20061;-82
2022/06/21 10:15:25;;;;;;;5.17;2.73;;;;;;;-145.18;100.00;47062.81;4879046;29;20108;-81
2022/06/21 10:18:04;;;;;;;5.63;3.45;;;;;;;-145.18;100.00;47070.63;4879555;29;20029;-82
2022/06/21 10:20:57;;;;;;;7.57;3.27;;;;;;;-145.18;100.00;47058.91;4878003;29;20036;-82
2022/06/21 10:23:25;;;;;;;10.63;3.50;;;;;;;-145.18;100.00;47043.28;4879570;29;20103;-82
2022/06/21 10:26:27;;;;;;;8.07;3.33;;;;;;;-145.18;100.00;47072.56;4878740;29;20033;-82
2022/06/21 10:29:14;;;;;;;6.77;3.47;;;;;;;-145.18;100.00;47097.97;4879079;29;20673;-81
2022/06/21 10:31:51;;;;;;;7.63;3.57;;;;;;;-145.18;100.00;47086.25;4879610;29;20393;-82
2022/06/21 10:34:25;;;;;;;10.93;4.00;;;;;;;-145.18;100.00;47064.75;4879104;29;20056;-81
2022/06/21 10:37:10;;;;;;;7.33;3.57;;;;;;;-145.18;100.00;47037.41;4879212;29;20491;-81
2022/06/21 10:39:54;;;;;;;9.00;4.13;;;;;;;-145.18;100.00;47058.91;4878782;29;20132;-81
2022/06/21 10:42:48;;;;;;;8.07;4.87;;;;;;;-145.18;100.00;47078.44;4879195;29;20037;-81
2022/06/21 10:45:38;;;;;;;7.53;3.50;;;;;;;-145.18;100.00;47074.53;4879057;29;20622;-81
2022/06/21 10:48:21;;;;;;;8.63;3.53;;;;;;;-145.18;100.00;47055.00;4878896;29;20048;-81
2022/06/21 10:51:17;;;;;;;16.70;2.93;;;;;;;-145.18;100.00;47035.44;4878256;29;20067;-81
2022/06/21 10:54:05;;;;;;;5.38;2.53;;;;;;;-145.18;100.00;47058.91;4862343;29;20040;-81
2022/06/21 10:57:09;;;;;;;4.40;2.30;;;;;;;-145.18;100.00;47068.66;4878161;29;20044;-81
2022/06/21 11:01:17;;;;;;;5.33;2.80;;;;;;;-145.18;100.00;47058.91;4878497;29;20044;-81
2022/06/21 11:02:45;;;;;;;6.00;2.42;;;;;;;-145.18;100.00;47056.94;4878357;29;20093;-81
2022/06/21 11:05:25;;;;;;;3.77;2.47;;;;;;;-145.18;100.00;47039.34;4877818;29;20044;-81
2022/06/21 11:07:51;;;;;;;8.50;2.33;;;;;;;-145.18;100.00;47047.19;4878856;29;20025;-81
2022/06/21 11:10:33;;;;;;;4.63;2.37;;;;;;;-145.18;100.00;47066.72;4878385;29;20097;-81
2022/06/21 11:13:06;;;;;;;5.63;2.90;;;;;;;-145.18;100.00;47090.16;4878399;29;20033;-81
2022/06/21 11:15:44;;;;;;;3.80;2.77;;;;;;;-145.18;100.00;47086.25;4878388;29;20525;-81
2022/06/21 11:18:34;;;;;;;7.27;2.90;;;;;;;-145.18;100.00;47066.72;4878666;29;20124;-81
2022/06/21 11:21:39;;;;;;;8.27;2.70;;;;;;;-145.18;100.00;47072.56;4877746;29;20041;-81
2022/06/21 11:24:13;;;;;;;4.97;2.90;;;;;;;-145.18;100.00;47066.72;4877884;29;20422;-81
2022/06/21 11:27:14;;;;;;;4.83;2.93;;;;;;;-145.18;100.00;47068.66;4878476;29;20113;-80
2022/06/21 11:30:17;;;;;;;5.23;3.20;;;;;;;-145.18;100.00;47055.00;4859392;29;20034;-81
2022/06/21 11:32:49;;;;;;;4.80;2.70;;;;;;;-145.18;100.00;47056.94;4859765;29;20048;-81
2022/06/21 11:35:39;;;;;;;8.93;3.00;;;;;;;-145.18;100.00;47051.09;4867631;29;20141;-81
2022/06/21 11:38:24;;;;;;;3.87;2.60;;;;;;;-145.18;100.00;47053.03;4877679;29;20112;-81
2022/06/21 11:41:04;;;;;;;6.87;2.97;;;;;;;-145.18;100.00;47053.03;4877476;29;20085;-82
2022/06/21 11:43:42;;;;;;;7.17;2.77;;;;;;;-145.18;100.00;47060.84;4876472;29;20128;-80
2022/06/21 11:46:35;;;;;;;5.17;2.80;;;;;;;-145.18;100.00;47068.66;4877200;29;20406;-81
2022/06/21 11:49:34;;;;;;;7.37;3.10;;;;;;;-145.18;100.00;47045.22;4868822;29;20040;-80
2022/06/21 11:52:14;;;;;;;6.47;3.00;;;;;;;-145.18;100.00;47033.50;4877716;29;20403;-81
2022/06/21 11:55:17;;;;;;;5.07;2.70;;;;;;;-145.18;100.00;47047.19;4877537;29;20037;-80
2022/06/21 11:57:53;;;;;;;6.50;2.83;;;;;;;-145.18;100.00;47039.34;4860165;29;20124;-81
2022/06/21 12:00:48;;;;;;;8.87;2.90;;;;;;;-145.18;100.00;47058.91;4877134;29;20097;-81